Time;durP1;ratioP1;P1;durP2;ratioP2;P2;SDS_P1;SDS_P2;PMS_P1;PMS_P2;Temp;Humidity;BMP_temperature;BMP_pressure;BME280_temperature;BME280_humidity;BME280_pressure;Samples;Min_cycle;Max_cycle;Signal;HPM_P1;HPM_P2
2023/06/06 00:00:54;;;;;;;7.97;2.67;;;;;;;18.06;100.00;97634.09;5096874;28;20471;-80
2023/06/06 00:03:20;;;;;;;17.30;2.70;;;;;;;18.01;100.00;97635.50;5112249;28;20510;-80
2023/06/06 00:05:48;;;;;;;6.15;2.60;;;;;;;17.90;100.00;97639.19;5130150;27;20027;-80
2023/06/06 00:08:13;;;;;;;5.05;3.30;;;;;;;17.90;100.00;97700.59;5114063;27;20055;-80
2023/06/06 00:10:39;;;;;;;4.45;2.75;;;;;;;17.69;100.00;97685.25;5120514;27;20057;-80
2023/06/06 00:13:05;;;;;;;5.45;2.70;;;;;;;17.61;100.00;97682.38;5107234;27;20024;-80
2023/06/06 00:15:31;;;;;;;5.60;2.72;;;;;;;17.60;100.00;97655.44;5116854;27;20398;-81
2023/06/06 00:17:59;;;;;;;5.20;2.13;;;;;;;17.69;100.00;97625.72;5134094;27;20058;-81
2023/06/06 00:20:26;;;;;;;2.50;2.00;;;;;;;17.75;100.00;97619.75;5118465;27;20030;-82
2023/06/06 00:22:53;;;;;;;4.95;2.33;;;;;;;17.76;100.00;97612.50;5117387;27;20026;-80
2023/06/06 00:25:19;;;;;;;3.80;2.13;;;;;;;17.87;100.00;97618.66;5116821;27;20023;-79
2023/06/06 00:27:44;;;;;;;6.53;2.10;;;;;;;17.82;100.00;97609.25;5116899;27;20023;-80
2023/06/06 00:30:11;;;;;;;5.88;2.30;;;;;;;17.80;100.00;97617.50;5132688;27;20019;-80
2023/06/06 00:32:36;;;;;;;5.53;2.85;;;;;;;17.79;100.00;97653.69;5130074;27;20027;-80
2023/06/06 00:35:02;;;;;;;9.60;2.92;;;;;;;17.68;100.00;97674.56;5129270;27;20422;-79
2023/06/06 00:37:28;;;;;;;2.65;1.95;;;;;;;17.56;100.00;97635.09;5112574;28;20096;-81
2023/06/06 00:39:53;;;;;;;4.32;2.50;;;;;;;17.60;100.00;97647.31;5115783;27;20499;-82
2023/06/06 00:42:19;;;;;;;6.82;2.30;;;;;;;17.58;100.00;97644.78;5122053;27;20037;-82
2023/06/06 00:44:45;;;;;;;4.07;2.30;;;;;;;17.59;100.00;97635.69;5132331;27;20097;-82
2023/06/06 00:47:11;;;;;;;4.28;2.15;;;;;;;17.64;100.00;97614.47;5116438;27;20027;-80
2023/06/06 00:49:36;;;;;;;2.72;2.17;;;;;;;17.62;100.00;97613.75;5116726;27;20019;-79
2023/06/06 00:52:02;;;;;;;3.83;2.30;;;;;;;17.64;100.00;97614.47;5124938;27;20106;-79
2023/06/06 00:54:33;;;;;;;4.95;2.20;;;;;;;17.65;100.00;97634.25;5115209;27;20086;-79
2023/06/06 00:57:00;;;;;;;9.02;2.05;;;;;;;17.74;100.00;97634.31;5116515;27;20034;-79
2023/06/06 00:59:26;;;;;;;12.45;2.25;;;;;;;17.73;100.00;97619.06;5116193;27;20031;-78
2023/06/06 01:01:51;;;;;;;2.90;2.03;;;;;;;17.75;100.00;97608.94;5133226;27;20091;-79
2023/06/06 01:04:18;;;;;;;3.38;2.15;;;;;;;17.76;100.00;97613.38;5097291;28;20043;-79
2023/06/06 01:06:43;;;;;;;4.45;2.03;;;;;;;17.75;100.00;97613.47;5126788;27;20478;-80
2023/06/06 01:09:11;;;;;;;7.32;2.35;;;;;;;17.79;100.00;97610.38;5134148;27;20037;-79
2023/06/06 01:12:10;;;;;;;4.93;1.90;;;;;;;17.78;100.00;97608.66;5115897;27;20027;-78
2023/06/06 01:14:52;;;;;;;6.45;2.25;;;;;;;17.75;100.00;97606.22;5121702;27;20519;-79
2023/06/06 01:17:18;;;;;;;;;;;;;;;17.70;100.00;97592.28;5131019;27;20524;-78
2023/06/06 01:19:48;;;;;;;5.57;3.28;;;;;;;17.67;100.00;97602.50;5114169;27;19951;-79
2023/06/06 01:22:17;;;;;;;3.47;2.10;;;;;;;17.64;100.00;97595.53;5096825;28;20028;-81
2023/06/06 01:24:44;;;;;;;3.05;2.08;;;;;;;17.64;100.00;97605.50;5102480;28;20088;-79
2023/06/06 01:27:10;;;;;;;5.18;1.88;;;;;;;17.60;100.00;97604.91;5120588;27;20027;-78
2023/06/06 01:29:35;;;;;;;4.03;2.00;;;;;;;17.58;100.00;97601.50;5114148;27;20179;-78
2023/06/06 01:32:23;;;;;;;2.95;1.75;;;;;;;17.64;100.00;97606.34;5117174;27;20016;-80
2023/06/06 01:35:12;;;;;;;3.03;1.83;;;;;;;17.63;100.00;97607.34;5095676;28;20128;-79
2023/06/06 01:37:48;;;;;;;5.00;2.70;;;;;;;17.61;100.00;97627.41;5082587;28;20042;-80
2023/06/06 01:40:16;;;;;;;4.15;3.10;;;;;;;17.46;100.00;97672.00;5094879;28;20452;-79
2023/06/06 01:42:49;;;;;;;8.63;3.50;;;;;;;17.30;100.00;97667.06;5112621;27;20110;-80
2023/06/06 01:45:17;;;;;;;4.43;2.10;;;;;;;17.27;100.00;97635.75;5115051;27;20023;-80
2023/06/06 01:47:43;;;;;;;11.40;3.85;;;;;;;17.26;100.00;97665.63;5120076;27;20023;-80
2023/06/06 01:50:09;;;;;;;13.30;4.20;;;;;;;17.23;100.00;97698.34;5119560;27;20015;-79
2023/06/06 01:52:38;;;;;;;7.65;4.20;;;;;;;17.08;100.00;97708.63;5132012;27;20019;-79
2023/06/06 01:55:05;;;;;;;18.15;3.90;;;;;;;16.83;100.00;97716.28;5117057;27;20024;-80
2023/06/06 01:57:31;;;;;;;9.07;3.95;;;;;;;16.69;100.00;97726.38;5111667;28;20103;-79
2023/06/06 01:59:57;;;;;;;9.00;3.83;;;;;;;16.59;100.00;97722.72;5131095;27;20111;-80
2023/06/06 02:02:22;;;;;;;6.18;4.07;;;;;;;16.48;100.00;97733.53;5105685;28;20020;-79
2023/06/06 02:04:48;;;;;;;6.30;3.60;;;;;;;16.47;100.00;97726.41;5108433;28;20448;-80
2023/06/06 02:07:15;;;;;;;6.93;3.30;;;;;;;16.53;100.00;97717.81;5110646;27;20027;-79
2023/06/06 02:09:44;;;;;;;5.70;3.65;;;;;;;16.46;100.00;97719.28;5114546;27;20463;-79
2023/06/06 02:12:10;;;;;;;5.95;3.58;;;;;;;16.41;100.00;97721.53;5131948;27;20027;-80
2023/06/06 02:14:36;;;;;;;5.90;3.15;;;;;;;16.43;100.00;97708.75;5120943;27;20027;-80
2023/06/06 02:17:05;;;;;;;5.65;3.15;;;;;;;16.42;100.00;97707.03;5131570;27;20038;-80
2023/06/06 02:19:31;;;;;;;8.07;3.25;;;;;;;16.38;100.00;97704.72;5113917;27;20083;-80
2023/06/06 02:21:57;;;;;;;7.05;3.60;;;;;;;16.39;100.00;97701.03;5122434;27;20027;-81
2023/06/06 02:24:25;;;;;;;3.85;2.55;;;;;;;16.42;100.00;97698.09;5115277;27;20397;-78
2023/06/06 02:26:54;;;;;;;5.72;2.30;;;;;;;16.45;100.00;97668.13;5132273;27;20023;-79
2023/06/06 02:29:23;;;;;;;4.60;2.22;;;;;;;16.52;100.00;97651.25;5123550;27;20552;-80
2023/06/06 02:31:49;;;;;;;8.50;2.65;;;;;;;16.56;100.00;97658.16;5110779;27;20098;-80
2023/06/06 02:34:15;;;;;;;5.90;3.03;;;;;;;16.53;100.00;97665.63;5102530;28;20020;-80
2023/06/06 02:36:41;;;;;;;5.60;2.60;;;;;;;16.53;100.00;97668.31;5110485;28;20076;-80
2023/06/06 02:39:09;;;;;;;7.22;2.95;;;;;;;16.49;100.00;97691.19;5119389;27;20031;-79
2023/06/06 02:41:35;;;;;;;8.38;3.10;;;;;;;16.44;100.00;97688.88;5112259;28;20043;-81
2023/06/06 02:44:01;;;;;;;6.82;3.42;;;;;;;16.33;100.00;97710.50;5120705;27;20548;-80
2023/06/06 02:46:27;;;;;;;8.20;3.42;;;;;;;16.21;100.00;97735.81;5126316;27;20031;-80
2023/06/06 02:48:52;;;;;;;6.90;3.65;;;;;;;16.15;100.00;97752.50;5114186;27;20470;-80
2023/06/06 02:51:22;;;;;;;7.47;4.18;;;;;;;16.05;100.00;97762.31;5100201;28;20085;-81
2023/06/06 02:53:49;;;;;;;8.02;3.63;;;;;;;15.96;100.00;97753.13;5119935;27;20414;-80
2023/06/06 02:56:16;;;;;;;10.32;4.80;;;;;;;15.96;100.00;97779.25;5114331;27;20030;-81
2023/06/06 02:58:42;;;;;;;7.05;4.22;;;;;;;15.83;100.00;97727.25;5121224;27;20148;-80
2023/06/06 03:01:09;;;;;;;5.82;2.45;;;;;;;15.76;100.00;97717.91;5131191;27;20035;-80
2023/06/06 03:03:35;;;;;;;3.15;1.98;;;;;;;15.71;100.00;97694.88;5118105;27;20072;-80
2023/06/06 03:06:00;;;;;;;7.65;2.45;;;;;;;15.87;100.00;97693.66;5111416;28;20028;-81
2023/06/06 03:08:26;;;;;;;5.50;2.50;;;;;;;15.92;100.00;97702.22;5108648;28;20500;-81
2023/06/06 03:10:52;;;;;;;5.47;2.95;;;;;;;15.90;100.00;97715.84;5113556;27;20030;-80
2023/06/06 03:13:17;;;;;;;2.90;2.03;;;;;;;15.87;100.00;97688.25;5086337;28;20070;-81
2023/06/06 03:15:46;;;;;;;5.30;2.15;;;;;;;15.85;100.00;97695.59;5110439;28;20106;-81
2023/06/06 03:18:16;;;;;;;6.90;2.65;;;;;;;15.91;100.00;97722.06;5093700;28;20043;-81
2023/06/06 03:20:44;;;;;;;10.02;2.92;;;;;;;15.83;100.00;97714.63;5111700;28;20401;-81
2023/06/06 03:23:11;;;;;;;3.63;2.08;;;;;;;15.89;100.00;97697.06;5122565;28;20027;-80
2023/06/06 03:25:39;;;;;;;3.53;2.20;;;;;;;15.95;100.00;97672.28;5113698;27;20045;-80
2023/06/06 03:28:04;;;;;;;5.10;2.95;;;;;;;16.03;100.00;97672.50;5104108;28;20027;-80
2023/06/06 03:30:30;;;;;;;5.68;2.55;;;;;;;16.06;100.00;97681.22;5093348;28;20077;-80
2023/06/06 03:32:55;;;;;;;11.75;3.80;;;;;;;16.08;100.00;97691.91;5101618;28;20081;-80
2023/06/06 03:35:22;;;;;;;6.80;2.85;;;;;;;16.06;100.00;97694.72;5108729;28;20027;-81
2023/06/06 03:37:47;;;;;;;6.38;2.17;;;;;;;16.13;100.00;97701.34;5109249;27;20031;-80
2023/06/06 03:40:13;;;;;;;6.38;2.28;;;;;;;16.17;100.00;97696.53;5111062;27;20471;-81
2023/06/06 03:42:38;;;;;;;9.57;3.60;;;;;;;16.26;100.00;97695.78;5102847;28;20034;-81
2023/06/06 03:45:05;;;;;;;9.65;3.08;;;;;;;16.21;100.00;97698.84;5120438;28;20211;-80
2023/06/06 03:47:31;;;;;;;18.23;7.40;;;;;;;16.24;100.00;97724.75;5100825;28;20031;-79
2023/06/06 03:49:56;;;;;;;13.07;5.00;;;;;;;16.25;100.00;97721.06;5092921;28;20031;-80
2023/06/06 03:55:11;;;;;;;8.68;4.18;;;;;;;16.23;100.00;97758.13;5115460;27;20122;-79
2023/06/06 03:57:37;;;;;;;11.88;5.10;;;;;;;16.29;100.00;97746.81;5130771;28;20123;-78
2023/06/06 04:00:11;;;;;;;14.85;5.35;;;;;;;16.28;100.00;97764.00;5113472;28;20494;-80
2023/06/06 04:02:37;;;;;;;14.93;5.60;;;;;;;16.27;100.00;97759.59;5113611;28;20023;-78
2023/06/06 04:05:07;;;;;;;11.93;5.20;;;;;;;16.32;100.00;97762.78;5124458;27;20020;-78
2023/06/06 04:07:33;;;;;;;21.98;7.97;;;;;;;16.43;100.00;97769.97;5113524;27;20498;-77
2023/06/06 04:10:01;;;;;;;12.82;4.65;;;;;;;16.49;100.00;97778.44;5104948;28;20032;-78
2023/06/06 04:12:27;;;;;;;11.98;3.95;;;;;;;16.61;100.00;97766.66;5096815;28;20027;-78
2023/06/06 04:14:53;;;;;;;6.55;3.65;;;;;;;16.74;100.00;97767.38;5120155;27;20050;-79
2023/06/06 04:17:19;;;;;;;8.13;4.32;;;;;;;16.80;100.00;97774.97;5134242;27;20055;-78
2023/06/06 04:19:47;;;;;;;11.93;5.35;;;;;;;16.91;100.00;97784.03;5117301;27;20031;-79
2023/06/06 04:22:15;;;;;;;12.40;4.30;;;;;;;16.96;100.00;97776.38;5133858;27;20031;-82
2023/06/06 04:24:41;;;;;;;8.57;4.38;;;;;;;17.04;100.00;97763.09;5126573;27;20419;-81
2023/06/06 04:27:07;;;;;;;21.80;7.68;;;;;;;17.11;100.00;97773.25;5116724;27;20080;-82
2023/06/06 04:29:36;;;;;;;10.57;3.90;;;;;;;17.21;100.00;97749.84;5116528;27;20027;-80
2023/06/06 04:32:03;;;;;;;10.55;5.15;;;;;;;17.31;100.00;97741.81;5101193;28;20027;-81
2023/06/06 04:34:30;;;;;;;11.40;5.47;;;;;;;17.34;100.00;97738.84;5114238;27;20031;-82
2023/06/06 04:37:02;;;;;;;13.38;5.15;;;;;;;17.47;100.00;97744.91;5133812;27;20023;-80
2023/06/06 04:39:28;;;;;;;10.63;4.85;;;;;;;17.48;100.00;97735.78;5116946;27;20103;-81
2023/06/06 04:41:56;;;;;;;12.60;4.32;;;;;;;17.61;100.00;97744.59;5116741;27;20065;-81
2023/06/06 04:44:23;;;;;;;23.00;7.50;;;;;;;17.78;100.00;97733.13;5100152;28;20027;-81
2023/06/06 04:46:52;;;;;;;17.75;5.07;;;;;;;17.75;100.00;97737.97;5109409;27;20505;-80
2023/06/06 04:49:20;;;;;;;5.55;2.50;;;;;;;17.93;100.00;97703.88;5117044;27;20028;-82
2023/06/06 04:51:46;;;;;;;11.70;5.45;;;;;;;19.05;100.00;97727.91;5096275;28;20047;-81
2023/06/06 04:54:12;;;;;;;11.00;3.97;;;;;;;19.86;100.00;97705.66;5129701;27;20015;-82
2023/06/06 04:56:39;;;;;;;7.05;3.83;;;;;;;20.81;100.00;97703.44;5104075;28;20034;-76
2023/06/06 04:59:05;;;;;;;9.30;3.28;;;;;;;21.53;100.00;97703.25;5110852;27;20026;-77
2023/06/06 05:01:36;;;;;;;12.65;3.83;;;;;;;22.05;100.00;97702.25;5113538;28;20023;-76
2023/06/06 05:04:05;;;;;;;22.25;7.88;;;;;;;22.65;100.00;97693.97;5095483;28;20023;-75
2023/06/06 05:06:31;;;;;;;14.68;4.78;;;;;;;23.63;100.00;97704.81;5094993;28;20032;-77
2023/06/06 05:09:07;;;;;;;7.07;3.47;;;;;;;24.23;100.00;97683.34;5095287;28;20037;-75
2023/06/06 05:11:33;;;;;;;11.60;3.88;;;;;;;24.61;99.72;97683.53;5095278;28;20509;-76
2023/06/06 05:13:59;;;;;;;9.07;3.17;;;;;;;24.77;97.94;97680.66;5114664;27;20832;-76
2023/06/06 05:16:27;;;;;;;8.93;3.60;;;;;;;24.99;91.83;97676.28;5114596;27;20125;-76
2023/06/06 05:18:53;;;;;;;10.65;4.45;;;;;;;25.84;91.12;97683.28;5115643;27;20180;-76
2023/06/06 05:21:19;;;;;;;9.43;4.22;;;;;;;26.28;85.99;97659.47;5118816;27;20118;-76
2023/06/06 05:23:45;;;;;;;10.90;4.43;;;;;;;26.39;84.25;97658.97;5111819;28;20102;-76
2023/06/06 05:26:11;;;;;;;28.08;4.80;;;;;;;26.61;81.59;97662.63;5127485;27;20096;-74
2023/06/06 05:28:37;;;;;;;7.75;3.80;;;;;;;26.91;79.77;97661.56;5109952;27;20569;-77
2023/06/06 05:31:05;;;;;;;17.38;8.50;;;;;;;26.76;77.47;97644.22;5114898;27;20027;-77
2023/06/06 05:33:31;;;;;;;14.82;3.80;;;;;;;27.05;76.49;97653.44;5118126;27;20023;-78
2023/06/06 05:36:00;;;;;;;13.95;3.83;;;;;;;27.53;75.17;97660.94;5111545;28;20457;-77
2023/06/06 05:38:26;;;;;;;13.98;3.40;;;;;;;27.39;76.09;97659.94;5100214;27;20023;-77
2023/06/06 05:41:00;;;;;;;9.82;3.95;;;;;;;27.75;73.45;97661.72;5094701;28;20471;-77
2023/06/06 05:43:27;;;;;;;5.32;2.45;;;;;;;27.51;66.51;97645.66;5119739;27;20077;-77
2023/06/06 05:45:56;;;;;;;14.23;2.90;;;;;;;26.91;66.93;97625.03;5115036;27;20032;-77
2023/06/06 05:48:22;;;;;;;8.85;3.35;;;;;;;27.57;66.08;97633.88;5106586;27;20049;-76
2023/06/06 05:50:48;;;;;;;5.18;3.35;;;;;;;27.87;65.91;97641.72;5131724;27;20026;-79
2023/06/06 05:53:13;;;;;;;7.15;3.50;;;;;;;27.91;61.51;97628.41;5095384;28;20034;-77
2023/06/06 05:55:39;;;;;;;8.70;3.10;;;;;;;27.20;66.33;97630.34;5095877;27;20058;-78
2023/06/06 05:58:05;;;;;;;9.15;3.38;;;;;;;27.21;67.04;97625.72;5114709;27;20080;-79
2023/06/06 06:00:33;;;;;;;11.23;2.88;;;;;;;26.84;68.96;97619.47;5106372;27;20028;-78
2023/06/06 06:03:00;;;;;;;6.53;3.10;;;;;;;26.77;75.09;97636.84;5114673;27;20031;-80
2023/06/06 06:05:28;;;;;;;9.40;4.78;;;;;;;26.63;77.89;97651.47;5107173;28;20039;-78
2023/06/06 06:07:59;;;;;;;6.47;2.80;;;;;;;27.02;75.49;97631.88;5122959;27;20019;-79
2023/06/06 06:10:34;;;;;;;6.13;3.45;;;;;;;27.60;67.94;97626.06;5114598;27;20035;-79
2023/06/06 06:13:00;;;;;;;10.07;4.50;;;;;;;28.16;65.20;97639.81;5119527;27;20073;-78
2023/06/06 06:15:29;;;;;;;8.27;4.60;;;;;;;28.60;63.71;97634.75;5111031;28;20023;-79
2023/06/06 06:17:54;;;;;;;8.02;4.20;;;;;;;28.71;63.34;97630.56;5093787;28;20040;-79
2023/06/06 06:20:20;;;;;;;6.35;3.50;;;;;;;28.68;63.63;97619.94;5110465;28;20039;-79
2023/06/06 06:22:46;;;;;;;5.20;3.20;;;;;;;29.18;61.02;97633.22;5111623;28;20023;-79
2023/06/06 06:25:19;;;;;;;10.75;4.15;;;;;;;29.63;58.80;97637.06;5106251;28;20153;-78
2023/06/06 06:27:46;;;;;;;7.38;4.40;;;;;;;30.05;54.76;97625.63;5118749;27;20027;-79
2023/06/06 06:30:16;;;;;;;12.05;4.60;;;;;;;30.28;52.40;97613.22;5101247;28;20046;-78
2023/06/06 06:32:43;;;;;;;10.95;5.35;;;;;;;30.87;49.60;97608.31;5094074;28;20030;-79
2023/06/06 06:35:09;;;;;;;9.02;3.35;;;;;;;30.84;50.92;97625.31;5127644;27;20034;-78
2023/06/06 06:37:39;;;;;;;9.57;3.17;;;;;;;31.40;47.88;97614.34;5130946;27;20423;-79
2023/06/06 06:40:09;;;;;;;5.03;3.30;;;;;;;31.62;45.12;97589.94;5131123;27;20027;-78
2023/06/06 06:42:43;;;;;;;5.30;3.28;;;;;;;31.35;45.14;97583.75;5106356;27;20481;-79
2023/06/06 06:45:13;;;;;;;10.23;4.57;;;;;;;31.29;46.39;97595.72;5114331;27;20033;-78
2023/06/06 06:47:43;;;;;;;7.18;3.15;;;;;;;31.45;46.86;97605.38;5113558;27;20039;-78
2023/06/06 06:50:10;;;;;;;8.45;3.42;;;;;;;31.27;48.07;97597.84;5118407;27;20160;-79
2023/06/06 06:52:36;;;;;;;9.88;3.20;;;;;;;32.46;45.32;97603.09;5118514;27;20027;-79
2023/06/06 06:55:04;;;;;;;5.47;3.05;;;;;;;32.59;45.24;97608.53;5130964;27;20038;-79
2023/06/06 06:57:29;;;;;;;6.47;2.97;;;;;;;33.00;42.98;97591.97;5130676;27;20026;-79
2023/06/06 06:59:58;;;;;;;10.15;3.97;;;;;;;32.89;43.24;97581.66;5099175;28;20023;-79
2023/06/06 07:02:26;;;;;;;10.85;3.58;;;;;;;32.14;42.09;97552.59;5110283;28;20399;-79
2023/06/06 07:04:52;;;;;;;6.82;2.97;;;;;;;31.94;43.46;97555.53;5102050;28;20023;-78
2023/06/06 07:07:18;;;;;;;9.27;3.25;;;;;;;32.00;44.09;97553.78;5110864;28;20024;-80
2023/06/06 07:09:43;;;;;;;9.50;4.03;;;;;;;32.14;43.80;97561.75;5130827;27;20023;-79
2023/06/06 07:12:12;;;;;;;11.70;3.63;;;;;;;32.51;43.04;97557.03;5130555;28;20474;-78
2023/06/06 07:14:41;;;;;;;6.38;3.72;;;;;;;32.72;42.51;97564.84;5113424;28;20025;-80
2023/06/06 07:17:09;;;;;;;9.02;3.80;;;;;;;33.08;41.98;97560.28;5113407;27;20651;-78
2023/06/06 07:19:35;;;;;;;7.25;3.42;;;;;;;32.34;41.52;97533.78;5110944;28;20031;-77
2023/06/06 07:22:03;;;;;;;11.20;3.42;;;;;;;32.42;42.39;97546.50;5125096;27;20521;-79
2023/06/06 07:24:29;;;;;;;4.68;2.90;;;;;;;33.35;40.38;97563.50;5103302;28;20418;-79
2023/06/06 07:26:54;;;;;;;8.18;3.22;;;;;;;33.12;41.90;97567.06;5098475;28;20106;-80
2023/06/06 07:29:21;;;;;;;10.50;3.50;;;;;;;33.13;40.39;97552.13;5130400;27;20110;-78
2023/06/06 07:31:47;;;;;;;6.43;3.83;;;;;;;33.00;40.55;97541.22;5113482;28;20106;-80
2023/06/06 07:34:13;;;;;;;21.83;6.35;;;;;;;33.66;40.55;97558.50;5113426;28;20095;-79
2023/06/06 07:36:38;;;;;;;6.75;3.30;;;;;;;33.21;38.53;97535.97;5112953;28;20031;-79
2023/06/06 07:39:04;;;;;;;9.00;4.28;;;;;;;34.25;37.23;97549.03;5105893;27;20030;-79
2023/06/06 07:41:30;;;;;;;10.50;3.33;;;;;;;35.20;36.20;97574.34;5107594;28;20110;-79
2023/06/06 07:43:57;;;;;;;6.45;2.80;;;;;;;33.76;36.15;97500.44;5110237;27;20061;-80
2023/06/06 07:46:24;;;;;;;11.23;3.30;;;;;;;34.00;35.63;97522.59;5117246;27;20402;-80
2023/06/06 07:48:50;;;;;;;9.70;3.45;;;;;;;33.31;37.51;97507.66;5113633;28;20478;-79
2023/06/06 07:51:15;;;;;;;11.43;4.47;;;;;;;34.07;37.09;97534.44;5114084;28;20027;-80
2023/06/06 07:53:41;;;;;;;6.10;3.60;;;;;;;33.17;37.92;97517.28;5133277;27;20031;-78
2023/06/06 07:56:06;;;;;;;6.68;3.53;;;;;;;31.80;39.93;97503.34;5102860;28;20408;-80
2023/06/06 07:58:42;;;;;;;7.80;3.33;;;;;;;31.66;41.06;97516.47;5114541;27;20027;-79
2023/06/06 08:01:11;;;;;;;7.93;4.13;;;;;;;32.44;40.51;97533.25;5117002;27;20035;-80
2023/06/06 08:03:37;;;;;;;7.35;3.70;;;;;;;31.50;42.52;97526.19;5123996;27;20042;-80
2023/06/06 08:06:03;;;;;;;9.23;4.25;;;;;;;31.63;44.22;97548.22;5127421;27;20027;-79
2023/06/06 08:08:28;;;;;;;4.18;3.10;;;;;;;31.12;43.46;97528.22;5133822;27;20033;-79
2023/06/06 08:10:54;;;;;;;10.80;4.55;;;;;;;31.31;41.98;97529.97;5096248;28;20045;-79
2023/06/06 08:13:23;;;;;;;9.77;4.55;;;;;;;31.32;39.96;97517.81;5103849;27;20033;-80
2023/06/06 08:15:51;;;;;;;12.20;4.70;;;;;;;31.40;40.15;97520.31;5116625;27;20038;-79
2023/06/06 08:18:19;;;;;;;9.35;3.40;;;;;;;31.85;40.33;97529.25;5118697;27;20106;-79
2023/06/06 08:20:45;;;;;;;7.63;3.20;;;;;;;32.61;38.40;97549.00;5106269;27;20039;-79
2023/06/06 08:23:11;;;;;;;6.22;4.63;;;;;;;33.03;37.62;97536.03;5116911;27;20100;-79
2023/06/06 08:25:39;;;;;;;5.47;3.70;;;;;;;33.21;37.11;97546.22;5098359;28;20028;-80
2023/06/06 08:28:05;;;;;;;12.85;4.15;;;;;;;34.75;36.91;97576.25;5126708;27;20512;-79
2023/06/06 08:30:31;;;;;;;6.75;3.10;;;;;;;35.89;33.40;97573.06;5135373;27;20027;-80
2023/06/06 08:32:56;;;;;;;4.53;3.40;;;;;;;35.92;34.33;97565.28;5133526;27;20194;-80
2023/06/06 08:35:24;;;;;;;4.22;2.95;;;;;;;34.62;35.50;97515.38;5109385;28;20023;-80
2023/06/06 08:37:50;;;;;;;4.93;2.78;;;;;;;34.55;35.37;97523.81;5132612;27;20045;-80
2023/06/06 08:40:15;;;;;;;7.30;4.30;;;;;;;35.73;35.32;97548.00;5116162;27;20026;-80
2023/06/06 08:42:46;;;;;;;7.15;3.70;;;;;;;36.16;34.77;97564.84;5125174;27;20445;-80
2023/06/06 08:45:12;;;;;;;3.05;2.55;;;;;;;37.33;31.74;97569.88;5115231;27;20034;-80
2023/06/06 08:47:43;;;;;;;5.85;3.80;;;;;;;37.25;32.17;97546.09;5116266;27;20175;-80
2023/06/06 08:50:09;;;;;;;8.55;6.03;;;;;;;37.03;32.62;97552.84;5126839;27;20079;-80
2023/06/06 08:52:35;;;;;;;5.45;3.05;;;;;;;36.36;32.76;97516.91;5132478;27;20102;-79
2023/06/06 08:55:01;;;;;;;8.45;4.60;;;;;;;36.17;33.59;97530.31;5115461;27;20027;-80
2023/06/06 08:57:27;;;;;;;6.00;3.00;;;;;;;35.06;34.54;97500.63;5126626;27;20447;-80
2023/06/06 08:59:52;;;;;;;3.63;3.03;;;;;;;34.04;34.25;97473.81;5105089;28;20482;-80
2023/06/06 09:02:18;;;;;;;3.88;3.10;;;;;;;32.53;37.80;97482.81;5112516;28;20027;-79
2023/06/06 09:04:44;;;;;;;10.23;3.30;;;;;;;30.24;42.99;97490.50;5101793;27;20023;-78
2023/06/06 09:07:12;;;;;;;5.57;3.83;;;;;;;30.46;42.68;97503.78;5132678;27;20419;-79
2023/06/06 09:09:40;;;;;;;5.93;3.13;;;;;;;30.60;42.33;97510.09;5107277;27;20027;-79
2023/06/06 09:12:07;;;;;;;7.53;2.95;;;;;;;30.60;42.42;97502.66;5132531;27;20027;-78
2023/06/06 09:14:33;;;;;;;12.52;5.57;;;;;;;30.53;44.17;97518.41;5115653;27;20463;-77
2023/06/06 09:17:02;;;;;;;15.95;5.40;;;;;;;30.59;44.22;97517.53;5114283;27;20055;-78
2023/06/06 09:19:29;;;;;;;12.13;5.65;;;;;;;31.68;42.65;97534.56;5120917;27;20107;-79
2023/06/06 09:21:57;;;;;;;11.13;3.70;;;;;;;32.72;39.29;97547.38;5095097;28;20023;-78
2023/06/06 09:24:23;;;;;;;5.78;2.88;;;;;;;33.74;36.55;97547.03;5129422;27;20027;-79
2023/06/06 09:26:48;;;;;;;20.45;13.02;;;;;;;34.40;36.32;97553.22;5112610;27;20023;-80
2023/06/06 09:29:14;;;;;;;5.18;4.03;;;;;;;34.98;36.21;97566.97;5102561;28;20391;-78
2023/06/06 09:31:40;;;;;;;9.77;3.70;;;;;;;35.22;33.89;97536.00;5103513;28;20031;-79
2023/06/06 09:34:10;;;;;;;5.95;3.00;;;;;;;36.33;33.20;97556.44;5131896;27;20031;-78
2023/06/06 09:36:39;;;;;;;5.70;2.95;;;;;;;35.46;34.07;97528.34;5099815;28;20027;-78
2023/06/06 09:39:12;;;;;;;4.50;3.47;;;;;;;35.79;32.95;97524.69;5120456;27;20092;-78
2023/06/06 09:41:41;;;;;;;7.82;3.05;;;;;;;35.92;31.61;97520.69;5107111;28;20016;-78
2023/06/06 09:44:20;;;;;;;6.55;3.00;;;;;;;36.03;31.71;97511.38;5114487;27;20023;-78
2023/06/06 09:46:46;;;;;;;3.85;3.00;;;;;;;36.25;31.94;97526.22;5101305;28;20402;-79
2023/06/06 09:49:15;;;;;;;9.07;3.70;;;;;;;34.47;34.13;97476.97;5103376;27;20091;-79
2023/06/06 09:51:44;;;;;;;9.20;3.70;;;;;;;34.95;34.50;97506.28;5124444;27;20023;-79
2023/06/06 09:54:10;;;;;;;14.13;7.07;;;;;;;35.75;34.36;97515.16;5114713;27;20031;-78
2023/06/06 09:56:40;;;;;;;6.80;4.40;;;;;;;36.00;34.22;97523.88;5114879;27;20031;-79
2023/06/06 09:59:08;;;;;;;5.28;2.83;;;;;;;34.13;36.37;97486.28;5119320;27;20026;-79
2023/06/06 10:01:35;;;;;;;4.95;3.30;;;;;;;35.82;35.19;97527.81;5123323;27;20489;-78
2023/06/06 10:04:03;;;;;;;8.70;3.85;;;;;;;34.41;36.44;97474.34;5111923;27;20038;-79
2023/06/06 10:06:33;;;;;;;6.55;3.08;;;;;;;33.98;37.63;97502.56;5119807;27;20027;-79
2023/06/06 10:09:05;;;;;;;4.03;2.70;;;;;;;34.99;36.85;97511.06;5113513;27;20118;-79
2023/06/06 10:11:32;;;;;;;9.43;3.22;;;;;;;36.04;35.75;97527.00;5120960;27;20035;-78
2023/06/06 10:13:58;;;;;;;6.88;3.00;;;;;;;36.64;34.79;97519.47;5115222;27;20458;-78
2023/06/06 10:16:27;;;;;;;4.05;2.90;;;;;;;35.85;35.97;97493.88;5103442;27;20183;-78
2023/06/06 10:18:53;;;;;;;4.97;3.25;;;;;;;36.21;35.72;97509.16;5109256;28;20043;-79
2023/06/06 10:21:20;;;;;;;4.90;3.63;;;;;;;36.69;35.18;97508.38;5110884;27;20064;-79
2023/06/06 10:23:46;;;;;;;6.45;3.63;;;;;;;36.81;34.95;97497.91;5131421;27;20038;-78
2023/06/06 10:26:18;;;;;;;5.88;3.63;;;;;;;35.44;36.20;97466.50;5098080;28;20027;-79
2023/06/06 10:29:22;;;;;;;5.35;2.83;;;;;;;35.36;36.55;97469.72;5102909;28;20106;-78
2023/06/06 10:31:56;;;;;;;5.85;2.95;;;;;;;36.47;35.71;97499.19;5108248;28;20028;-78
2023/06/06 10:34:27;;;;;;;4.95;3.45;;;;;;;35.77;36.42;97463.69;5106277;28;20042;-78
2023/06/06 10:36:54;;;;;;;10.70;3.70;;;;;;;35.18;38.03;97458.84;5128004;27;20051;-79
2023/06/06 10:39:29;;;;;;;6.35;3.53;;;;;;;35.23;37.36;97458.91;5105333;28;20080;-79
2023/06/06 10:41:58;;;;;;;3.92;3.10;;;;;;;35.97;36.52;97470.63;5093276;28;20030;-78
2023/06/06 10:44:29;;;;;;;12.35;3.33;;;;;;;36.13;36.80;97467.81;5101826;28;20031;-79
2023/06/06 10:47:27;;;;;;;4.75;3.17;;;;;;;35.35;37.57;97459.66;5110884;27;20062;-79
2023/06/06 10:50:08;;;;;;;7.88;3.75;;;;;;;35.03;37.61;97439.94;5130712;27;20027;-80
2023/06/06 10:52:54;;;;;;;5.53;3.60;;;;;;;35.85;37.73;97466.03;5132272;27;20023;-80
2023/06/06 10:55:20;;;;;;;7.82;3.38;;;;;;;36.55;36.68;97481.19;5126720;27;20038;-79
2023/06/06 10:57:53;;;;;;;7.25;3.17;;;;;;;35.54;37.55;97440.75;5119229;27;20474;-80
2023/06/06 11:00:25;;;;;;;3.90;2.90;;;;;;;35.28;38.30;97453.47;5126783;27;20027;-80
2023/06/06 11:02:58;;;;;;;5.85;3.45;;;;;;;37.00;35.65;97478.03;5110638;28;20019;-79
2023/06/06 11:05:24;;;;;;;7.63;3.90;;;;;;;35.32;38.12;97443.47;5098050;28;20026;-80
2023/06/06 11:07:50;;;;;;;5.20;3.17;;;;;;;37.14;35.57;97479.28;5093147;28;20023;-79
2023/06/06 11:10:22;;;;;;;4.60;2.60;;;;;;;38.90;33.05;97477.53;5095911;28;20513;-80
2023/06/06 11:12:49;;;;;;;12.75;4.53;;;;;;;38.64;33.83;97458.97;5111089;28;20568;-81
2023/06/06 11:15:31;;;;;;;5.72;4.13;;;;;;;39.27;32.80;97465.28;5122614;28;20034;-82
2023/06/06 11:18:06;;;;;;;12.10;4.25;;;;;;;39.96;31.50;97443.88;5087450;28;20108;-84
2023/06/06 11:20:40;;;;;;;6.97;3.50;;;;;;;38.86;32.41;97441.97;5113193;28;20023;-80
2023/06/06 11:23:08;;;;;;;7.60;3.20;;;;;;;37.28;33.96;97400.44;5098004;28;20051;-81
2023/06/06 11:25:35;;;;;;;8.85;4.40;;;;;;;36.66;35.37;97414.09;5101822;28;20077;-83
2023/06/06 11:28:01;;;;;;;5.68;3.55;;;;;;;35.70;37.36;97407.34;5091025;28;20031;-82
2023/06/06 11:30:45;;;;;;;4.80;3.70;;;;;;;34.88;38.79;97403.53;5098826;28;20027;-82
2023/06/06 11:33:11;;;;;;;9.10;4.13;;;;;;;34.88;38.95;97414.66;5087640;28;20035;-81